Time;durP1;ratioP1;P1;durP2;ratioP2;P2;SDS_P1;SDS_P2;PMS_P1;PMS_P2;Temp;Humidity;BMP_temperature;BMP_pressure;BME280_temperature;BME280_humidity;BME280_pressure;Samples;Min_cycle;Max_cycle;Signal;HPM_P1;HPM_P2
2022/05/29 00:02:00;;;;;;;9.50;3.40;;;;;11.20;97194.40;;;;110638;1253;41254;-70
2022/05/29 00:04:30;;;;;;;7.40;3.10;;;;;11.18;97187.80;;;;110796;1253;41386;-60
2022/05/29 00:07:00;;;;;;;7.20;3.10;;;;;11.10;97189.40;;;;110798;1250;41138;-60
2022/05/29 00:09:44;;;;;;;7.00;2.80;;;;;11.10;97192.60;;;;110645;1253;41186;-63
2022/05/29 00:12:16;;;;;;;6.70;3.00;;;;;11.10;97187.20;;;;110711;1253;41162;-59
2022/05/29 00:14:47;;;;;;;7.00;3.10;;;;;11.00;97184.20;;;;110766;1252;41225;-60
2022/05/29 00:17:19;;;;;;;7.10;3.10;;;;;11.00;97187.00;;;;110692;1253;41801;-58
2022/05/29 00:19:48;;;;;;;7.90;3.00;;;;;11.00;97185.20;;;;110742;1250;41711;-67
2022/05/29 00:22:20;;;;;;;7.00;2.80;;;;;10.90;97180.00;;;;110772;1250;41154;-59
2022/05/29 00:24:51;;;;;;;7.50;3.40;;;;;10.90;97185.40;;;;110398;1253;41270;-62
2022/05/29 00:27:21;;;;;;;19.50;4.40;;;;;10.90;97184.80;;;;110756;1250;41371;-59
2022/05/29 00:29:53;;;;;;;31.80;6.20;;;;;10.90;97178.40;;;;110680;1253;41256;-60
2022/05/29 00:32:23;;;;;;;46.00;6.90;;;;;10.90;97177.80;;;;110578;1251;41161;-63
2022/05/29 00:34:54;;;;;;;65.50;6.20;;;;;10.86;97179.20;;;;110572;1252;41753;-68
2022/05/29 00:37:24;;;;;;;22.20;3.90;;;;;10.80;97176.40;;;;110794;1251;41808;-63
2022/05/29 00:39:54;;;;;;;15.40;3.20;;;;;10.80;97178.40;;;;110620;1253;41359;-66
2022/05/29 00:42:25;;;;;;;70.40;5.70;;;;;10.80;97172.00;;;;110797;1250;41208;-62
2022/05/29 00:44:55;;;;;;;36.90;4.90;;;;;10.80;97170.80;;;;110651;1250;41614;-59
2022/05/29 00:47:27;;;;;;;41.10;5.70;;;;;10.66;97167.00;;;;110747;1251;41158;-59
2022/05/29 00:49:58;;;;;;;25.80;4.80;;;;;10.42;97164.20;;;;110800;1250;41175;-63
2022/05/29 00:52:29;;;;;;;17.50;4.70;;;;;10.40;97162.20;;;;110824;1251;41178;-71
2022/05/29 00:55:01;;;;;;;23.20;4.20;;;;;10.40;97164.40;;;;110727;1250;41602;-64
2022/05/29 00:57:35;;;;;;;18.50;3.70;;;;;10.40;97167.00;;;;110618;1253;42512;-70
2022/05/29 01:00:09;;;;;;;10.40;3.50;;;;;10.40;97161.60;;;;110687;1253;41915;-75
2022/05/29 01:02:40;;;;;;;24.00;4.40;;;;;10.40;97161.00;;;;110816;1250;41992;-74
2022/05/29 01:05:13;;;;;;;19.40;4.40;;;;;10.32;97161.80;;;;110750;1250;42104;-68
2022/05/29 01:07:44;;;;;;;32.00;4.70;;;;;10.30;97156.40;;;;110764;1251;41209;-73
2022/05/29 01:10:15;;;;;;;19.60;4.60;;;;;10.30;97154.00;;;;110590;1253;41622;-63
2022/05/29 01:12:52;;;;;;;42.30;6.20;;;;;10.20;97150.20;;;;110782;1253;41630;-61
2022/05/29 01:16:02;;;;;;;17.50;5.00;;;;;10.10;97157.60;;;;110611;1253;41947;-63
2022/05/29 01:18:37;;;;;;;22.40;5.20;;;;;9.98;97153.80;;;;110781;1253;41606;-68
2022/05/29 01:21:27;;;;;;;58.30;7.80;;;;;9.80;97148.00;;;;110640;1253;41842;-65
2022/05/29 01:24:22;;;;;;;42.00;5.80;;;;;9.70;97151.60;;;;110652;1252;41165;-69
2022/05/29 01:27:10;;;;;;;46.70;5.70;;;;;9.70;97156.40;;;;110758;1250;41934;-68
2022/05/29 01:29:53;;;;;;;24.80;5.70;;;;;9.70;97152.20;;;;110766;1253;42121;-61
2022/05/29 01:32:55;;;;;;;11.20;5.10;;;;;9.70;97149.60;;;;110660;1253;41499;-72
2022/05/29 01:35:37;;;;;;;8.20;4.30;;;;;9.68;97150.40;;;;110524;1253;41151;-71
2022/05/29 01:38:30;;;;;;;7.70;3.70;;;;;9.70;97156.40;;;;110658;1253;40773;-60
2022/05/29 01:41:19;;;;;;;8.10;4.20;;;;;9.80;97161.00;;;;110516;1253;41162;-64
2022/05/29 01:44:09;;;;;;;11.50;5.30;;;;;9.88;97158.40;;;;110700;1253;41385;-62
2022/05/29 01:46:44;;;;;;;10.40;5.80;;;;;9.92;97147.60;;;;110649;1253;41384;-59
2022/05/29 01:49:30;;;;;;;9.10;5.00;;;;;10.00;97150.60;;;;110663;1253;41633;-66
2022/05/29 01:52:05;;;;;;;7.80;3.90;;;;;10.10;97148.60;;;;110551;1253;41346;-66
2022/05/29 01:54:39;;;;;;;8.60;3.90;;;;;10.10;97152.80;;;;110496;1254;41149;-62
2022/05/29 01:57:18;;;;;;;8.60;4.00;;;;;10.10;97142.00;;;;110543;1254;41161;-63
2022/05/29 02:00:00;;;;;;;7.60;3.50;;;;;10.14;97145.80;;;;110570;1253;42607;-59
2022/05/29 02:02:42;;;;;;;7.60;3.60;;;;;10.20;97148.40;;;;110584;1253;41704;-62
2022/05/29 02:05:16;;;;;;;8.90;3.70;;;;;10.20;97142.40;;;;110658;1253;41148;-59
2022/05/29 02:07:48;;;;;;;10.40;3.60;;;;;10.30;97143.40;;;;110619;1254;41265;-60
2022/05/29 02:10:45;;;;;;;22.20;4.20;;;;;10.32;97140.60;;;;110694;1253;41155;-67
2022/05/29 02:13:35;;;;;;;11.60;6.40;;;;;10.40;97138.20;;;;110583;1253;41619;-60
2022/05/29 02:16:11;;;;;;;13.30;6.80;;;;;10.50;97139.20;;;;110645;1251;41260;-68
2022/05/29 02:18:51;;;;;;;12.10;6.40;;;;;10.50;97141.00;;;;110563;1254;41750;-70
2022/05/29 02:21:55;;;;;;;9.80;5.00;;;;;10.50;97148.00;;;;110671;1253;41169;-62
2022/05/29 02:24:31;;;;;;;10.40;5.20;;;;;10.50;97157.40;;;;110113;1259;41172;-60
2022/05/29 02:27:06;;;;;;;16.50;4.80;;;;;10.50;97154.40;;;;110134;1259;41155;-70
2022/05/29 02:29:37;;;;;;;22.50;4.90;;;;;10.50;97157.00;;;;110117;1260;41169;-60
2022/05/29 02:32:27;;;;;;;16.00;4.20;;;;;10.50;97161.40;;;;110139;1258;41596;-60
2022/05/29 02:35:28;;;;;;;11.20;4.10;;;;;10.50;97161.80;;;;110078;1260;41828;-59
2022/05/29 02:38:06;;;;;;;9.30;4.10;;;;;10.50;97158.60;;;;109734;1261;41282;-59
2022/05/29 02:40:51;;;;;;;11.50;4.10;;;;;10.50;97158.20;;;;110210;1258;42414;-59
2022/05/29 02:43:40;;;;;;;16.30;5.20;;;;;10.50;97150.40;;;;110158;1257;41521;-60
2022/05/29 02:46:35;;;;;;;10.00;5.00;;;;;10.50;97150.40;;;;110173;1259;41272;-60
2022/05/29 02:49:23;;;;;;;12.90;4.50;;;;;10.60;97150.40;;;;110177;1257;42419;-59
2022/05/29 02:52:02;;;;;;;16.70;5.60;;;;;10.60;97136.60;;;;110149;1257;41149;-59
2022/05/29 02:54:33;;;;;;;11.40;5.50;;;;;10.60;97136.20;;;;110259;1257;41603;-81
2022/05/29 02:57:04;;;;;;;35.60;7.50;;;;;10.60;97135.00;;;;110198;1259;41272;-70
2022/05/29 02:59:41;;;;;;;34.10;6.20;;;;;10.50;97139.40;;;;110052;1259;41229;-69
2022/05/29 03:02:30;;;;;;;34.60;5.90;;;;;10.50;97143.80;;;;110523;1253;41150;-61
2022/05/29 03:05:28;;;;;;;10.70;5.20;;;;;10.50;97146.20;;;;110705;1251;41155;-65
2022/05/29 03:08:22;;;;;;;20.30;6.20;;;;;10.40;97150.60;;;;110768;1252;41240;-65
2022/05/29 03:11:17;;;;;;;15.10;4.60;;;;;10.50;97151.80;;;;110617;1253;41261;-67
2022/05/29 03:13:51;;;;;;;19.40;4.30;;;;;10.50;97153.20;;;;110754;1251;41210;-67
2022/05/29 03:16:57;;;;;;;10.80;5.00;;;;;10.58;97159.80;;;;110811;1250;41270;-65
2022/05/29 03:19:35;;;;;;;22.10;4.70;;;;;10.60;97167.00;;;;110749;1251;41257;-68
2022/05/29 03:22:16;;;;;;;14.90;4.40;;;;;10.68;97169.40;;;;110778;1251;41395;-60
2022/05/29 03:24:59;;;;;;;18.60;4.60;;;;;10.70;97169.00;;;;110786;1253;41160;-61
2022/05/29 03:27:42;;;;;;;10.60;3.90;;;;;10.78;97159.80;;;;110593;1253;41290;-63
2022/05/29 03:30:19;;;;;;;19.90;5.40;;;;;10.80;97153.00;;;;110675;1251;41146;-59
2022/05/29 03:32:57;;;;;;;10.90;5.10;;;;;10.80;97153.00;;;;110629;1253;41180;-62
2022/05/29 03:35:29;;;;;;;8.20;4.30;;;;;10.90;97157.60;;;;110786;1251;41242;-62
2022/05/29 03:38:01;;;;;;;9.10;3.90;;;;;10.92;97164.60;;;;110760;1252;41257;-59
2022/05/29 03:40:33;;;;;;;11.50;6.00;;;;;11.00;97168.20;;;;110678;1253;42318;-70
2022/05/29 03:43:03;;;;;;;11.30;5.20;;;;;11.10;97170.20;;;;110751;1251;41121;-79
2022/05/29 03:45:33;;;;;;;9.40;4.40;;;;;11.10;97173.40;;;;110717;1251;41180;-61
2022/05/29 03:48:03;;;;;;;9.10;4.10;;;;;11.20;97168.60;;;;110754;1251;41384;-62
2022/05/29 03:50:34;;;;;;;8.70;3.70;;;;;11.22;97171.80;;;;110793;1252;41639;-63
2022/05/29 03:53:04;;;;;;;9.20;4.60;;;;;11.30;97165.80;;;;110678;1251;42993;-61
2022/05/29 03:55:34;;;;;;;10.70;4.70;;;;;11.40;97161.60;;;;110786;1251;41222;-71
2022/05/29 03:58:04;;;;;;;8.00;3.80;;;;;11.42;97168.20;;;;110786;1251;41946;-65
2022/05/29 04:00:33;;;;;;;9.30;4.30;;;;;11.50;97171.40;;;;110723;1251;41143;-63
2022/05/29 04:03:03;;;;;;;10.20;5.10;;;;;11.60;97163.00;;;;110607;1252;41918;-74
2022/05/29 04:05:33;;;;;;;11.40;6.10;;;;;11.60;97152.00;;;;110774;1251;41252;-59
2022/05/29 04:13:43;;;;;;;19.80;9.40;;;;;11.70;97145.40;;;;110797;1251;41488;-58
2022/05/29 04:16:14;;;;;;;29.70;12.20;;;;;11.80;97149.40;;;;110748;1253;41140;-64
2022/05/29 04:18:43;;;;;;;21.10;9.30;;;;;11.86;97149.60;;;;110696;1251;41204;-61
2022/05/29 04:21:13;;;;;;;19.20;8.50;;;;;12.00;97149.60;;;;110800;1251;42749;-61
2022/05/29 04:23:42;;;;;;;35.60;14.90;;;;;12.10;97146.40;;;;110808;1252;41479;-60
2022/05/29 04:26:14;;;;;;;38.30;14.80;;;;;12.18;97144.40;;;;110681;1251;41648;-59
2022/05/29 04:28:43;;;;;;;24.20;10.60;;;;;12.20;97144.60;;;;110596;1253;41798;-63
2022/05/29 04:31:13;;;;;;;34.50;13.40;;;;;12.30;97150.00;;;;110652;1251;41716;-61
2022/05/29 04:33:42;;;;;;;27.90;11.40;;;;;12.30;97143.60;;;;110596;1251;41251;-62
2022/05/29 04:36:12;;;;;;;20.90;9.10;;;;;12.30;97151.60;;;;110687;1250;41155;-62
2022/05/29 04:38:44;;;;;;;15.20;6.80;;;;;12.38;97150.80;;;;110723;1251;41153;-60
2022/05/29 04:41:14;;;;;;;15.10;6.60;;;;;12.50;97149.60;;;;110766;1251;41157;-60
2022/05/29 04:43:44;;;;;;;11.00;5.30;;;;;12.70;97146.40;;;;110821;1251;42023;-72
2022/05/29 04:46:14;;;;;;;9.50;4.30;;;;;12.90;97135.40;;;;110760;1251;41207;-64
2022/05/29 04:48:43;;;;;;;10.20;4.70;;;;;13.10;97134.60;;;;110739;1251;41256;-60
2022/05/29 04:51:13;;;;;;;8.00;4.00;;;;;13.30;97136.00;;;;110799;1251;41753;-59
2022/05/29 04:53:42;;;;;;;8.40;3.70;;;;;13.54;97141.20;;;;110721;1251;41266;-59
2022/05/29 04:56:12;;;;;;;11.20;4.80;;;;;13.70;97143.80;;;;110731;1251;41888;-63
2022/05/29 04:58:42;;;;;;;17.20;7.40;;;;;13.82;97141.00;;;;110716;1251;41959;-59
2022/05/29 05:01:11;;;;;;;18.60;9.30;;;;;13.90;97146.60;;;;110779;1253;41161;-63
2022/05/29 05:03:41;;;;;;;11.70;5.90;;;;;13.90;97154.80;;;;110592;1253;41151;-62
2022/05/29 05:06:11;;;;;;;17.70;8.30;;;;;13.80;97155.40;;;;110795;1253;41564;-62
2022/05/29 05:08:40;;;;;;;16.20;7.50;;;;;13.80;97151.00;;;;110790;1251;41257;-63
2022/05/29 05:11:10;;;;;;;15.40;6.40;;;;;13.80;97145.80;;;;110750;1253;41168;-64
2022/05/29 05:13:40;;;;;;;13.50;6.20;;;;;13.80;97141.20;;;;110791;1252;41613;-78
2022/05/29 05:16:09;;;;;;;12.90;6.00;;;;;13.80;97138.80;;;;110712;1252;42389;-60
2022/05/29 05:18:39;;;;;;;9.50;4.40;;;;;13.90;97135.80;;;;110738;1251;42556;-58
2022/05/29 05:21:08;;;;;;;9.30;4.80;;;;;13.96;97129.80;;;;110719;1252;41272;-64
2022/05/29 05:23:37;;;;;;;12.00;5.10;;;;;14.10;97127.60;;;;110754;1251;41637;-62
2022/05/29 05:26:09;;;;;;;10.30;4.70;;;;;14.30;97122.40;;;;110756;1253;41157;-60
2022/05/29 05:28:39;;;;;;;9.80;5.10;;;;;14.52;97111.60;;;;110784;1252;41181;-59
2022/05/29 05:31:08;;;;;;;10.60;4.80;;;;;14.80;97115.20;;;;110762;1251;41435;-71
2022/05/29 05:33:38;;;;;;;9.50;4.30;;;;;15.10;97121.80;;;;110749;1253;41431;-75
2022/05/29 05:36:07;;;;;;;12.00;5.40;;;;;15.30;97113.80;;;;110637;1252;41144;-59
2022/05/29 05:38:36;;;;;;;9.30;4.50;;;;;15.40;97101.60;;;;110725;1251;42467;-63
2022/05/29 05:41:09;;;;;;;10.50;5.10;;;;;15.60;97106.80;;;;110749;1253;41554;-65
2022/05/29 05:43:41;;;;;;;9.80;5.20;;;;;15.40;97110.60;;;;110645;1253;41262;-61
2022/05/29 05:46:15;;;;;;;10.30;4.30;;;;;15.10;97112.60;;;;110721;1252;41161;-59
2022/05/29 05:48:45;;;;;;;9.30;4.40;;;;;14.68;97110.80;;;;110616;1251;41815;-59
2022/05/29 05:51:14;;;;;;;9.20;4.50;;;;;14.80;97106.60;;;;110757;1251;41741;-64
2022/05/29 05:53:44;;;;;;;8.70;4.20;;;;;14.82;97095.60;;;;110676;1251;41873;-64
2022/05/29 05:56:15;;;;;;;9.50;4.70;;;;;14.98;97092.60;;;;110740;1250;41137;-65
2022/05/29 05:58:45;;;;;;;9.50;4.60;;;;;15.02;97096.00;;;;110644;1251;42185;-67
2022/05/29 06:01:16;;;;;;;8.70;4.20;;;;;15.10;97102.00;;;;110711;1251;41449;-60
2022/05/29 06:03:46;;;;;;;12.20;5.00;;;;;15.20;97098.60;;;;110808;1251;41142;-65
2022/05/29 06:06:15;;;;;;;10.00;4.60;;;;;15.28;97103.20;;;;110763;1251;41491;-65
2022/05/29 06:08:44;;;;;;;8.50;4.30;;;;;15.40;97107.40;;;;110689;1251;41588;-59
2022/05/29 06:11:13;;;;;;;11.60;4.70;;;;;15.50;97100.00;;;;110814;1251;41330;-59
2022/05/29 06:13:43;;;;;;;10.70;5.50;;;;;15.56;97102.00;;;;110859;1251;42491;-63
2022/05/29 06:16:13;;;;;;;10.30;5.10;;;;;15.50;97104.40;;;;110798;1251;41149;-67
2022/05/29 06:18:43;;;;;;;10.20;5.50;;;;;15.50;97107.20;;;;110623;1250;41685;-60
2022/05/29 06:21:12;;;;;;;11.30;5.00;;;;;15.50;97103.20;;;;110828;1251;41284;-59
2022/05/29 06:23:42;;;;;;;8.60;4.50;;;;;15.26;97101.80;;;;110744;1250;41957;-65
2022/05/29 06:26:12;;;;;;;8.80;4.40;;;;;15.30;97100.20;;;;110716;1251;41808;-59
2022/05/29 06:28:41;;;;;;;9.40;5.00;;;;;15.24;97095.60;;;;110435;1251;439476;-63
2022/05/29 06:31:12;;;;;;;10.00;4.80;;;;;15.30;97095.00;;;;110532;1253;42278;-59
2022/05/29 06:33:41;;;;;;;9.80;5.10;;;;;15.30;97098.00;;;;110553;1251;41157;-64
2022/05/29 06:36:16;;;;;;;11.80;5.20;;;;;15.20;97100.20;;;;110646;1251;41595;-59
2022/05/29 06:38:46;;;;;;;16.60;5.00;;;;;15.46;97093.80;;;;110625;1251;41843;-62
2022/05/29 06:41:17;;;;;;;12.50;7.10;;;;;15.62;97089.20;;;;110608;1253;41166;-60
2022/05/29 06:43:47;;;;;;;16.80;7.80;;;;;15.46;97082.80;;;;110626;1251;41185;-60
2022/05/29 06:46:16;;;;;;;15.40;8.00;;;;;15.70;97080.00;;;;110801;1251;41136;-62
2022/05/29 06:48:45;;;;;;;16.30;7.00;;;;;15.90;97087.40;;;;110639;1250;41437;-59
2022/05/29 06:51:21;;;;;;;13.70;7.60;;;;;16.00;97075.80;;;;110693;1253;41147;-58
2022/05/29 06:53:53;;;;;;;11.00;5.80;;;;;15.94;97067.20;;;;110729;1251;41718;-59
2022/05/29 06:56:24;;;;;;;9.40;4.60;;;;;16.20;97068.00;;;;110767;1251;42557;-59
2022/05/29 06:58:54;;;;;;;11.90;5.30;;;;;16.44;97072.80;;;;110576;1253;41269;-61
2022/05/29 07:07:14;;;;;;;8.90;4.30;;;;;17.00;97068.00;;;;110760;1250;41205;-64
2022/05/29 07:09:43;;;;;;;8.50;3.90;;;;;17.18;97053.20;;;;110677;1251;41159;-66
2022/05/29 07:12:20;;;;;;;8.80;4.00;;;;;17.40;97049.00;;;;110620;1251;41400;-65
2022/05/29 07:14:52;;;;;;;7.50;3.20;;;;;17.60;97047.40;;;;110590;1251;41490;-59
2022/05/29 07:17:26;;;;;;;7.70;3.30;;;;;17.90;97043.20;;;;110699;1251;42175;-69
2022/05/29 07:19:55;;;;;;;7.60;3.60;;;;;18.32;97037.60;;;;110645;1251;42218;-65
2022/05/29 07:22:27;;;;;;;7.30;3.30;;;;;18.78;97040.40;;;;110597;1253;42166;-69
2022/05/29 07:24:56;;;;;;;10.40;3.80;;;;;18.96;97042.80;;;;110560;1251;41144;-59
2022/05/29 07:27:25;;;;;;;8.10;3.60;;;;;19.06;97052.60;;;;110741;1251;42385;-76
2022/05/29 07:29:54;;;;;;;8.30;3.80;;;;;18.88;97046.60;;;;110751;1253;41592;-64
2022/05/29 07:32:24;;;;;;;6.90;3.20;;;;;18.90;97050.60;;;;110742;1251;41612;-71
2022/05/29 07:34:54;;;;;;;7.90;2.70;;;;;18.78;97058.60;;;;110646;1251;41148;-61
2022/05/29 07:37:23;;;;;;;6.60;2.60;;;;;18.60;97059.00;;;;110660;1250;41139;-65
2022/05/29 07:39:53;;;;;;;5.30;2.10;;;;;18.74;97057.00;;;;110622;1251;41599;-59
2022/05/29 07:45:10;;;;;;;6.00;2.30;;;;;18.90;97052.60;;;;110575;1251;41531;-61
2022/05/29 07:47:42;;;;;;;8.40;2.30;;;;;18.90;97050.20;;;;110717;1251;41133;-62
2022/05/29 07:50:17;;;;;;;6.40;2.30;;;;;18.90;97047.80;;;;110657;1251;42552;-72
2022/05/29 07:52:46;;;;;;;4.50;2.30;;;;;19.00;97041.20;;;;110616;1250;41165;-67
2022/05/29 07:55:16;;;;;;;8.30;2.70;;;;;19.00;97039.00;;;;110536;1254;42024;-63
2022/05/29 07:57:46;;;;;;;5.40;2.10;;;;;18.62;97038.80;;;;110581;1254;42531;-63
2022/05/29 08:00:18;;;;;;;5.00;1.90;;;;;18.70;97041.40;;;;110564;1253;41296;-62
2022/05/29 08:02:47;;;;;;;4.90;2.10;;;;;18.88;97034.40;;;;110544;1253;41165;-65
2022/05/29 08:05:18;;;;;;;6.00;1.90;;;;;19.10;97035.80;;;;110508;1254;41394;-74
2022/05/29 08:07:48;;;;;;;4.90;2.10;;;;;19.26;97040.80;;;;110636;1251;41273;-60
2022/05/29 08:10:20;;;;;;;5.10;1.90;;;;;19.38;97039.00;;;;110642;1251;41400;-62
2022/05/29 08:12:49;;;;;;;8.20;2.40;;;;;19.50;97040.80;;;;110587;1251;41852;-63
2022/05/29 08:15:18;;;;;;;4.60;2.10;;;;;19.50;97041.80;;;;110403;1254;41162;-61
2022/05/29 08:17:47;;;;;;;5.80;2.30;;;;;19.50;97038.40;;;;110639;1251;42131;-60
2022/05/29 08:20:19;;;;;;;5.20;2.10;;;;;19.60;97043.60;;;;110624;1252;41172;-62
2022/05/29 08:22:49;;;;;;;5.50;2.30;;;;;19.70;97044.40;;;;110604;1251;41273;-59
2022/05/29 08:30:54;;;;;;;4.20;2.00;;;;;19.40;97057.20;;;;110710;1251;41157;-63
2022/05/29 08:33:27;;;;;;;4.50;2.10;;;;;19.40;97055.60;;;;110635;1251;41871;-60
2022/05/29 08:36:06;;;;;;;6.10;2.20;;;;;19.50;97060.80;;;;110653;1251;41269;-59
2022/05/29 08:38:40;;;;;;;8.00;2.40;;;;;19.50;97063.00;;;;110709;1251;41147;-61
2022/05/29 08:41:16;;;;;;;5.40;2.00;;;;;19.50;97061.60;;;;110797;1251;41481;-59
2022/05/29 08:44:08;;;;;;;5.20;2.00;;;;;19.64;97063.20;;;;110679;1251;41279;-60
2022/05/29 08:46:49;;;;;;;6.30;2.10;;;;;20.00;97049.80;;;;110769;1251;42214;-59
2022/05/29 08:49:23;;;;;;;6.50;2.30;;;;;20.36;97045.00;;;;110780;1253;41339;-60
2022/05/29 08:52:00;;;;;;;3.80;1.80;;;;;20.84;97043.60;;;;110744;1251;41217;-60
2022/05/29 08:54:48;;;;;;;4.40;1.90;;;;;21.40;97041.40;;;;110459;1253;41886;-60
2022/05/29 08:57:55;;;;;;;3.70;1.90;;;;;21.62;97034.80;;;;110591;1251;41152;-59
2022/05/29 09:00:42;;;;;;;4.90;1.80;;;;;21.92;97035.60;;;;110799;1251;41255;-69
2022/05/29 09:03:32;;;;;;;3.50;1.70;;;;;22.34;97037.60;;;;110837;1251;41152;-75
2022/05/29 09:06:40;;;;;;;4.60;2.00;;;;;22.90;97046.40;;;;110826;1251;41264;-63
2022/05/29 09:09:47;;;;;;;4.20;1.90;;;;;22.80;97049.20;;;;110437;1253;42101;-68
2022/05/29 09:12:24;;;;;;;8.50;2.10;;;;;22.50;97054.20;;;;110760;1252;41168;-65
2022/05/29 09:14:59;;;;;;;6.30;1.90;;;;;22.48;97058.40;;;;110742;1251;41243;-64
2022/05/29 09:17:35;;;;;;;4.20;1.90;;;;;21.90;97062.20;;;;110730;1251;41250;-60
2022/05/29 09:20:26;;;;;;;4.40;1.90;;;;;21.40;97066.20;;;;110698;1251;41154;-72
2022/05/29 09:23:02;;;;;;;6.00;2.20;;;;;20.92;97069.40;;;;110779;1251;41166;-61
2022/05/29 09:25:37;;;;;;;4.50;1.60;;;;;20.80;97061.40;;;;110767;1251;41414;-59
2022/05/29 09:28:27;;;;;;;5.90;1.80;;;;;20.80;97050.60;;;;110665;1251;41158;-63
2022/05/29 09:31:07;;;;;;;4.50;1.80;;;;;20.90;97051.00;;;;110714;1251;41490;-67
2022/05/29 09:33:37;;;;;;;9.50;2.70;;;;;20.90;97057.00;;;;110768;1253;41255;-68
2022/05/29 09:36:25;;;;;;;5.00;1.90;;;;;20.98;97055.80;;;;110774;1250;41149;-72
2022/05/29 09:39:25;;;;;;;3.80;1.70;;;;;20.70;97049.20;;;;110619;1251;41157;-63
2022/05/29 09:42:24;;;;;;;3.20;1.70;;;;;20.66;97055.00;;;;110570;1253;41161;-61
2022/05/29 09:45:35;;;;;;;2.60;1.40;;;;;20.40;97058.80;;;;110688;1250;41938;-61
2022/05/29 09:51:31;;;;;;;4.70;1.80;;;;;20.30;97058.80;;;;110153;1260;42015;-63
2022/05/29 09:54:04;;;;;;;4.20;1.70;;;;;20.30;97056.00;;;;110100;1260;41150;-64
2022/05/29 09:56:34;;;;;;;3.20;1.70;;;;;20.20;97053.60;;;;110130;1259;41356;-64
2022/05/29 09:59:10;;;;;;;3.70;1.70;;;;;20.10;97057.40;;;;110106;1259;41639;-60
2022/05/29 10:01:42;;;;;;;4.60;1.80;;;;;20.00;97064.40;;;;110147;1260;42209;-60
2022/05/29 10:04:27;;;;;;;3.00;1.60;;;;;20.00;97061.40;;;;110029;1260;41225;-59
2022/05/29 10:06:58;;;;;;;2.80;1.60;;;;;19.90;97067.60;;;;110106;1257;41203;-60
2022/05/29 10:09:27;;;;;;;;;;;;;19.72;97064.20;;;;110182;1258;41192;-64
2022/05/29 10:12:15;;;;;;;3.80;1.80;;;;;19.60;97067.60;;;;110083;1259;41488;-60
2022/05/29 10:14:44;;;;;;;5.00;1.80;;;;;19.52;97067.40;;;;109973;1260;41209;-60
2022/05/29 10:17:28;;;;;;;4.70;1.80;;;;;19.50;97070.20;;;;110051;1260;41349;-59
2022/05/29 10:19:58;;;;;;;2.50;1.60;;;;;19.50;97085.00;;;;110079;1259;41375;-59
2022/05/29 10:22:33;;;;;;;6.90;1.90;;;;;19.40;97095.00;;;;109963;1260;41280;-63
2022/05/29 10:25:14;;;;;;;4.20;1.60;;;;;19.20;97100.20;;;;110408;1253;42267;-60
2022/05/29 10:27:46;;;;;;;4.50;1.90;;;;;19.00;97108.20;;;;110605;1251;41195;-66
2022/05/29 10:30:53;;;;;;;5.40;1.90;;;;;18.90;97113.80;;;;110582;1251;42257;-60
2022/05/29 10:33:24;;;;;;;5.40;2.10;;;;;18.70;97122.80;;;;110606;1251;41719;-63
2022/05/29 10:35:58;;;;;;;3.80;1.90;;;;;18.60;97104.80;;;;110634;1251;41493;-75
2022/05/29 10:38:29;;;;;;;4.20;1.90;;;;;18.60;97090.40;;;;110756;1251;40818;-62
2022/05/29 10:41:00;;;;;;;5.10;1.90;;;;;18.60;97079.60;;;;110586;1251;41547;-59
2022/05/29 10:43:54;;;;;;;7.10;2.30;;;;;18.58;97074.80;;;;110634;1250;42107;-59
2022/05/29 10:46:48;;;;;;;5.90;2.40;;;;;18.50;97078.80;;;;110679;1251;41279;-62
2022/05/29 10:49:26;;;;;;;4.70;2.10;;;;;18.40;97077.00;;;;110739;1251;41607;-62
2022/05/29 10:52:16;;;;;;;7.00;2.30;;;;;18.30;97075.20;;;;110770;1251;41813;-60
2022/05/29 10:55:16;;;;;;;4.60;2.00;;;;;17.96;97078.00;;;;110534;1253;41374;-59
2022/05/29 10:58:04;;;;;;;8.20;2.40;;;;;17.90;97065.60;;;;110734;1251;41305;-58
2022/05/29 11:00:37;;;;;;;8.80;2.70;;;;;17.90;97056.00;;;;110752;1251;41142;-59
2022/05/29 11:03:36;;;;;;;6.30;2.90;;;;;17.90;97038.20;;;;110755;1251;41313;-58
2022/05/29 11:06:37;;;;;;;6.30;2.50;;;;;18.00;97024.00;;;;110878;1250;41937;-63
2022/05/29 11:09:32;;;;;;;8.20;3.10;;;;;18.04;97022.80;;;;110593;1253;41147;-64
2022/05/29 11:12:16;;;;;;;7.60;3.10;;;;;17.98;97025.20;;;;110700;1251;41949;-64
2022/05/29 11:15:04;;;;;;;5.70;2.40;;;;;17.90;97027.80;;;;110623;1251;41157;-59
2022/05/29 11:17:46;;;;;;;7.50;2.80;;;;;17.90;97027.80;;;;110585;1251;42378;-63
2022/05/29 11:20:20;;;;;;;6.60;2.60;;;;;17.90;97020.20;;;;110710;1251;41168;-63
2022/05/29 11:22:49;;;;;;;7.60;2.40;;;;;18.00;97014.00;;;;110606;1250;41856;-63
2022/05/29 11:25:35;;;;;;;6.20;2.50;;;;;18.16;97004.80;;;;110819;1251;41168;-60
2022/05/29 11:28:31;;;;;;;4.10;2.00;;;;;18.40;97003.60;;;;110827;1251;41842;-67
2022/05/29 11:31:27;;;;;;;6.40;2.70;;;;;18.66;97010.20;;;;110619;1251;42480;-65
2022/05/29 11:34:14;;;;;;;9.40;3.50;;;;;18.94;97010.80;;;;110556;1253;41258;-65
2022/05/29 11:36:59;;;;;;;8.60;2.80;;;;;19.20;97013.80;;;;110770;1250;41931;-63
2022/05/29 11:39:31;;;;;;;6.60;2.50;;;;;19.40;97020.00;;;;110783;1251;41961;-63
2022/05/29 11:42:09;;;;;;;5.60;2.20;;;;;19.50;97015.60;;;;110651;1250;41808;-62
2022/05/29 11:44:56;;;;;;;6.90;2.80;;;;;19.50;97025.00;;;;110564;1250;41651;-68
2022/05/29 11:53:34;;;;;;;6.60;2.70;;;;;19.30;97033.20;;;;110791;1250;41260;-59
2022/05/29 11:57:01;;;;;;;8.60;3.20;;;;;19.10;97024.00;;;;110485;1254;41826;-63
2022/05/29 11:59:42;;;;;;;7.80;3.20;;;;;18.90;97019.80;;;;110266;1256;41617;-61
2022/05/29 12:02:20;;;;;;;6.70;2.90;;;;;18.80;97032.00;;;;110310;1256;41275;-77
2022/05/29 12:05:21;;;;;;;8.00;3.00;;;;;18.58;97035.00;;;;110289;1256;41594;-59
2022/05/29 12:08:20;;;;;;;8.50;3.40;;;;;18.50;97033.00;;;;110254;1256;41275;-61
2022/05/29 12:10:55;;;;;;;8.00;2.90;;;;;18.38;97033.40;;;;110142;1257;42114;-65
2022/05/29 12:13:28;;;;;;;8.00;3.20;;;;;18.30;97026.00;;;;110407;1256;41729;-62
2022/05/29 12:16:04;;;;;;;8.40;3.10;;;;;18.20;97031.60;;;;110323;1256;41160;-60
2022/05/29 12:18:44;;;;;;;6.10;2.50;;;;;18.20;97041.20;;;;110156;1256;41224;-60
2022/05/29 12:21:15;;;;;;;6.70;3.00;;;;;18.20;97037.40;;;;110349;1256;41170;-60
2022/05/29 12:23:47;;;;;;;9.30;3.40;;;;;18.20;97030.60;;;;110322;1256;41626;-61
2022/05/29 12:26:22;;;;;;;8.50;3.30;;;;;18.20;97019.80;;;;110167;1257;41732;-65
2022/05/29 12:28:58;;;;;;;8.10;3.50;;;;;18.12;97012.00;;;;110120;1257;41997;-66
2022/05/29 12:31:36;;;;;;;8.40;3.30;;;;;18.10;97015.80;;;;110356;1256;41163;-72
2022/05/29 12:34:06;;;;;;;7.10;3.10;;;;;18.10;97015.40;;;;110294;1253;42300;-63
2022/05/29 12:36:41;;;;;;;7.10;2.80;;;;;18.00;97005.60;;;;110674;1251;41162;-59
2022/05/29 12:39:42;;;;;;;7.30;2.90;;;;;18.00;96996.80;;;;110584;1252;41135;-72
2022/05/29 12:42:45;;;;;;;7.90;3.20;;;;;18.00;96990.60;;;;110667;1251;41307;-76
2022/05/29 12:45:36;;;;;;;7.70;3.20;;;;;18.00;96962.20;;;;110659;1250;41252;-71
2022/05/29 12:48:23;;;;;;;6.70;2.70;;;;;18.00;96964.60;;;;110668;1250;41969;-72
2022/05/29 12:51:26;;;;;;;8.00;2.80;;;;;18.06;96972.80;;;;110612;1251;41185;-67
2022/05/29 12:53:55;;;;;;;6.20;2.50;;;;;18.20;96986.60;;;;110779;1250;41594;-60
2022/05/29 12:56:36;;;;;;;6.60;2.30;;;;;18.30;96987.20;;;;110722;1250;42444;-64
2022/05/29 12:59:52;;;;;;;6.20;2.20;;;;;18.40;96997.60;;;;110695;1252;41149;-60
2022/05/29 13:02:42;;;;;;;6.70;2.70;;;;;18.40;97007.00;;;;110356;1251;41176;-65
2022/05/29 13:05:42;;;;;;;5.60;2.30;;;;;18.40;97006.80;;;;110645;1251;41531;-64
2022/05/29 13:08:33;;;;;;;6.50;2.30;;;;;18.30;97003.60;;;;110759;1251;41207;-64
2022/05/29 13:11:03;;;;;;;5.00;2.30;;;;;18.30;96996.60;;;;110641;1251;41155;-66
2022/05/29 13:13:46;;;;;;;6.10;2.60;;;;;18.30;96977.80;;;;110481;1251;41267;-64
2022/05/29 13:16:40;;;;;;;6.40;2.70;;;;;18.30;96962.20;;;;110628;1251;41605;-74
2022/05/29 13:19:24;;;;;;;8.10;2.90;;;;;18.20;96966.00;;;;110839;1249;41956;-74
2022/05/29 13:22:03;;;;;;;7.00;2.70;;;;;18.16;96964.00;;;;110685;1253;42019;-72
2022/05/29 13:24:37;;;;;;;8.50;2.90;;;;;18.10;96957.20;;;;110820;1250;42223;-72
2022/05/29 13:27:09;;;;;;;6.50;2.80;;;;;18.08;96948.20;;;;110587;1250;41168;-65